Station Historical Data
Daily Summary for November 21, 2017 Units:  English    Metric   Both
Next Day »
Daily Weekly Monthly Yearly Custom
  High: Low: Average:
Temperature: 65.7 °F 50.7 °F 56.9 °F
Dew Point: 58.7 °F 46.6 °F 51.9 °F
Humidity: 96% 61% 84%
Wind Speed: 15.0mph 0.0mph 2.5mph
Wind Gust: 18.0mph - -
Wind- - ESE
Pressure: 30.27 in 30.17 in -
Precipitation: 0.00 in    
Historical Graphs
 
 
Tabular Data for November 21, 2017
Time Temperature Dew Point Pressure Wind Wind Speed Wind Gust Humidity Rainfall Rate (Hourly) solar Conditions
00:01 51.5 °F 50.4 °F 30.24 in Calm     96% 0.00 in 0.00 W/m2
00:06 51.5 °F 50.4 °F 30.24 in Calm     96% 0.00 in 0.00 W/m2
00:17 51.6 °F 50.5 °F 30.24 in ESE 2.0 mph 5.0 mph 96% 0.00 in 0.00 W/m2
00:22 51.7 °F 50.6 °F 30.24 in Calm   5.0 mph 96% 0.00 in 0.00 W/m2
00:27 51.7 °F 50.6 °F 30.24 in Calm     96% 0.00 in 0.00 W/m2
00:42 51.7 °F 50.6 °F 30.24 in Calm   4.0 mph 96% 0.00 in 0.00 W/m2
00:47 51.6 °F 50.5 °F 30.24 in East 6.0 mph 6.0 mph 96% 0.00 in 0.00 W/m2
00:57 51.4 °F 50.3 °F 30.24 in Calm     96% 0.00 in 0.00 W/m2
01:07 51.4 °F 50.3 °F 30.24 in Calm     96% 0.00 in 0.00 W/m2
01:17 51.5 °F 50.4 °F 30.25 in Calm     96% 0.00 in 0.00 W/m2
01:22 51.4 °F 50.3 °F 30.24 in Calm     96% 0.00 in 0.00 W/m2
01:27 51.4 °F 50.3 °F 30.25 in Calm     96% 0.00 in 0.00 W/m2
01:32 51.4 °F 50.3 °F 30.25 in Calm     96% 0.00 in 0.00 W/m2
01:37 51.4 °F 50.3 °F 30.25 in Calm     96% 0.00 in 0.00 W/m2
01:42 51.4 °F 50.3 °F 30.25 in Calm   1.0 mph 96% 0.00 in 0.00 W/m2
01:52 51.4 °F 50.3 °F 30.25 in Calm   1.0 mph 96% 0.00 in 0.00 W/m2
01:57 51.4 °F 50.3 °F 30.25 in Calm   6.0 mph 96% 0.00 in 0.00 W/m2
02:02 51.4 °F 50.3 °F 30.25 in Calm     96% 0.00 in 0.00 W/m2
02:12 51.2 °F 50.1 °F 30.24 in Calm     96% 0.00 in 0.00 W/m2
02:17 51.2 °F 50.1 °F 30.24 in Calm   1.0 mph 96% 0.00 in 0.00 W/m2
02:32 51.2 °F 50.1 °F 30.23 in Calm   8.0 mph 96% 0.00 in 0.00 W/m2
02:37 51.2 °F 50.1 °F 30.23 in ESE 2.0 mph 5.0 mph 96% 0.00 in 0.00 W/m2
02:47 51.1 °F 50.0 °F 30.23 in East 4.0 mph 9.0 mph 96% 0.00 in 0.00 W/m2
02:52 51.1 °F 50.0 °F 30.23 in Calm   7.0 mph 96% 0.00 in 0.00 W/m2
02:57 51.1 °F 50.0 °F 30.22 in Calm   8.0 mph 96% 0.00 in 0.00 W/m2
03:03 51.1 °F 50.0 °F 30.22 in East 5.0 mph 7.0 mph 96% 0.00 in 0.00 W/m2
03:08 51.1 °F 50.0 °F 30.22 in Calm   8.0 mph 96% 0.00 in 0.00 W/m2
03:13 51.0 °F 49.9 °F 30.22 in Calm   6.0 mph 96% 0.00 in 0.00 W/m2
03:18 51.0 °F 49.9 °F 30.23 in Calm   7.0 mph 96% 0.00 in 0.00 W/m2
03:28 50.9 °F 49.8 °F 30.23 in ESE 4.0 mph 7.0 mph 96% 0.00 in 0.00 W/m2
03:33 50.9 °F 49.8 °F 30.23 in Calm   8.0 mph 96% 0.00 in 0.00 W/m2
03:38 50.8 °F 49.7 °F 30.23 in ESE 5.0 mph 8.0 mph 96% 0.00 in 0.00 W/m2
03:43 50.8 °F 49.7 °F 30.23 in Calm   9.0 mph 96% 0.00 in 0.00 W/m2
03:48 50.8 °F 49.7 °F 30.23 in Calm   4.0 mph 96% 0.00 in 0.00 W/m2
03:58 50.7 °F 49.6 °F 30.23 in ESE 2.0 mph 7.0 mph 96% 0.00 in 0.00 W/m2
04:03 50.7 °F 49.6 °F 30.23 in ESE 7.0 mph 12.0 mph 96% 0.00 in 0.00 W/m2
04:08 50.7 °F 49.6 °F 30.23 in East 4.0 mph 9.0 mph 96% 0.00 in 0.00 W/m2
04:18 50.7 °F 49.6 °F 30.24 in Calm   8.0 mph 96% 0.00 in 0.00 W/m2
04:28 50.8 °F 49.7 °F 30.24 in East 2.0 mph 7.0 mph 96% 0.00 in 0.00 W/m2
04:33 50.9 °F 49.8 °F 30.23 in Calm   8.0 mph 96% 0.00 in 0.00 W/m2
04:38 50.9 °F 49.8 °F 30.23 in East 5.0 mph 8.0 mph 96% 0.00 in 0.00 W/m2
04:43 50.9 °F 49.8 °F 30.23 in East 4.0 mph 9.0 mph 96% 0.00 in 0.00 W/m2
04:48 50.9 °F 49.8 °F 30.23 in Calm   8.0 mph 96% 0.00 in 0.00 W/m2
04:58 50.9 °F 49.8 °F 30.23 in ESE 9.0 mph 12.0 mph 96% 0.00 in 0.00 W/m2
05:08 51.0 °F 49.9 °F 30.23 in East 4.0 mph 12.0 mph 96% 0.00 in 0.00 W/m2
05:10 51.0 °F 49.9 °F 30.23 in East 8.0 mph 12.0 mph 96% 0.00 in 0.00 W/m2
05:15 51.0 °F 49.9 °F 30.23 in Calm   14.0 mph 96% 0.00 in 0.00 W/m2
05:25 51.0 °F 49.9 °F 30.24 in East 2.0 mph 14.0 mph 96% 0.00 in 0.00 W/m2
05:30 51.0 °F 49.9 °F 30.23 in East 7.0 mph 15.0 mph 96% 0.00 in 0.00 W/m2
05:35 51.0 °F 49.9 °F 30.23 in ESE 5.0 mph 15.0 mph 96% 0.00 in 0.00 W/m2
05:40 51.0 °F 49.9 °F 30.23 in ESE 12.0 mph 14.0 mph 96% 0.00 in 0.00 W/m2
05:50 51.0 °F 49.9 °F 30.24 in ESE 5.0 mph 12.0 mph 96% 0.00 in 0.00 W/m2
05:55 51.0 °F 49.9 °F 30.24 in ESE 2.0 mph 14.0 mph 96% 0.00 in 0.00 W/m2
06:00 51.0 °F 49.9 °F 30.24 in East 7.0 mph 16.0 mph 96% 0.00 in 0.00 W/m2
06:05 51.1 °F 50.0 °F 30.24 in ESE 11.0 mph 14.0 mph 96% 0.00 in 0.00 W/m2
06:10 51.0 °F 49.9 °F 30.24 in East 10.0 mph 15.0 mph 96% 0.00 in 0.00 W/m2
06:15 51.1 °F 50.0 °F 30.24 in ENE 5.0 mph 12.0 mph 96% 0.00 in 0.00 W/m2
06:20 51.1 °F 50.0 °F 30.24 in East 5.0 mph 7.0 mph 96% 0.00 in 0.00 W/m2
06:25 51.0 °F 49.9 °F 30.24 in ESE 6.0 mph 11.0 mph 96% 0.00 in 0.00 W/m2
06:35 51.1 °F 50.0 °F 30.23 in East 9.0 mph 15.0 mph 96% 0.00 in 0.00 W/m2
06:40 51.1 °F 49.7 °F 30.23 in ESE 12.0 mph 12.0 mph 95% 0.00 in 0.00 W/m2
06:46 51.1 °F 49.7 °F 30.23 in ESE 9.0 mph 14.0 mph 95% 0.00 in 0.00 W/m2
07:01 51.1 °F 49.7 °F 30.22 in East 15.0 mph 18.0 mph 95% 0.00 in 5.00 W/m2
07:06 51.1 °F 49.7 °F 30.22 in ESE 9.0 mph 13.0 mph 95% 0.00 in 7.00 W/m2
07:11 51.1 °F 49.4 °F 30.23 in ESE 5.0 mph 7.0 mph 94% 0.00 in 9.00 W/m2
07:16 51.2 °F 49.2 °F 30.23 in ESE 7.0 mph 15.0 mph 93% 0.00 in 12.00 W/m2
07:21 51.3 °F 49.6 °F 30.24 in East 3.0 mph 14.0 mph 94% 0.00 in 18.00 W/m2
07:26 51.3 °F 49.3 °F 30.24 in East 8.0 mph 13.0 mph 93% 0.00 in 18.00 W/m2
07:36 51.4 °F 49.5 °F 30.24 in ESE 2.0 mph 7.0 mph 93% 0.00 in 21.00 W/m2
07:41 51.4 °F 49.2 °F 30.24 in Calm   7.0 mph 92% 0.00 in 32.00 W/m2
07:51 51.7 °F 49.8 °F 30.25 in East 5.0 mph 12.0 mph 93% 0.00 in 40.00 W/m2
07:56 51.8 °F 49.8 °F 30.25 in East 6.0 mph 11.0 mph 93% 0.00 in 53.00 W/m2
08:01 51.9 °F 49.9 °F 30.25 in ESE 6.0 mph 13.0 mph 93% 0.00 in 65.00 W/m2
08:06 52.0 °F 50.0 °F 30.25 in East 1.0 mph 12.0 mph 93% 0.00 in 74.00 W/m2
08:16 52.3 °F 50.0 °F 30.26 in ESE 8.0 mph 11.0 mph 92% 0.00 in 83.00 W/m2
08:21 52.4 °F 50.2 °F 30.25 in ESE 7.0 mph 15.0 mph 92% 0.00 in 114.00 W/m2
08:26 52.5 °F 50.0 °F 30.25 in Calm   8.0 mph 91% 0.00 in 193.00 W/m2
08:31 52.7 °F 50.2 °F 30.26 in East 1.0 mph 13.0 mph 91% 0.00 in 329.00 W/m2
08:36 52.9 °F 50.3 °F 30.26 in East 8.0 mph 11.0 mph 91% 0.00 in 105.00 W/m2
08:41 53.1 °F 50.2 °F 30.26 in East 6.0 mph 8.0 mph 90% 0.00 in 88.00 W/m2
08:46 53.3 °F 50.5 °F 30.26 in Calm   7.0 mph 90% 0.00 in 86.00 W/m2
08:51 53.5 °F 50.3 °F 30.26 in Calm   9.0 mph 89% 0.00 in 134.00 W/m2
08:56 53.7 °F 50.8 °F 30.26 in Calm   8.0 mph 90% 0.00 in 264.00 W/m2
09:01 53.9 °F 51.0 °F 30.27 in Calm   13.0 mph 90% 0.00 in 132.00 W/m2
09:06 54.1 °F 51.2 °F 30.27 in East 1.0 mph 8.0 mph 90% 0.00 in 107.00 W/m2
09:11 54.2 °F 51.0 °F 30.27 in East 6.0 mph 7.0 mph 89% 0.00 in 128.00 W/m2
09:17 54.3 °F 51.1 °F 30.27 in Calm   7.0 mph 89% 0.00 in 253.00 W/m2
09:22 54.4 °F 51.2 °F 30.27 in ESE 2.0 mph 12.0 mph 89% 0.00 in 548.00 W/m2
09:27 54.7 °F 51.5 °F 30.26 in ESE 8.0 mph 8.0 mph 89% 0.00 in 475.00 W/m2
09:32 55.0 °F 51.8 °F 30.26 in ESE 1.0 mph 12.0 mph 89% 0.00 in 424.00 W/m2
09:37 55.3 °F 51.8 °F 30.26 in East 7.0 mph 9.0 mph 88% 0.00 in 221.00 W/m2
09:47 55.9 °F 51.5 °F 30.26 in ESE 1.0 mph 12.0 mph 85% 0.00 in 271.00 W/m2
09:57 56.5 °F 52.4 °F 30.26 in East 11.0 mph 18.0 mph 86% 0.00 in 151.00 W/m2
10:02 56.7 °F 52.2 °F 30.26 in Calm   14.0 mph 85% 0.00 in 137.00 W/m2
10:07 56.8 °F 51.7 °F 30.26 in ESE 5.0 mph 13.0 mph 83% 0.00 in 178.00 W/m2
10:12 56.9 °F 52.1 °F 30.26 in East 1.0 mph 13.0 mph 84% 0.00 in 190.00 W/m2
10:17 57.1 °F 52.3 °F 30.26 in Calm   8.0 mph 84% 0.00 in 216.00 W/m2
10:22 57.2 °F 52.4 °F 30.26 in East 1.0 mph 12.0 mph 84% 0.00 in 274.00 W/m2
10:27 57.3 °F 52.8 °F 30.26 in Calm   14.0 mph 85% 0.00 in 394.00 W/m2
10:32 57.5 °F 53.0 °F 30.26 in Calm   6.0 mph 85% 0.00 in 223.00 W/m2
10:37 57.6 °F 52.8 °F 30.26 in Calm     84% 0.00 in 334.00 W/m2
10:42 57.8 °F 53.3 °F 30.26 in ESE 4.0 mph 11.0 mph 85% 0.00 in 575.00 W/m2
10:47 58.2 °F 54.0 °F 30.26 in Calm   8.0 mph 86% 0.00 in 473.00 W/m2
10:57 58.8 °F 54.3 °F 30.25 in ESE 4.0 mph 7.0 mph 85% 0.00 in 548.00 W/m2
11:02 59.1 °F 54.0 °F 30.25 in ESE 8.0 mph 9.0 mph 83% 0.00 in 512.00 W/m2
11:07 59.5 °F 53.0 °F 30.25 in ESE 2.0 mph 8.0 mph 79% 0.00 in 424.00 W/m2
11:12 59.9 °F 53.4 °F 30.25 in Calm     79% 0.00 in 438.00 W/m2
11:17 60.3 °F 53.8 °F 30.25 in Calm   2.0 mph 79% 0.00 in 371.00 W/m2
11:22 60.5 °F 54.0 °F 30.25 in Calm     79% 0.00 in 485.00 W/m2
11:27 60.7 °F 54.5 °F 30.25 in Calm     80% 0.00 in 320.00 W/m2
11:32 61.0 °F 55.5 °F 30.25 in Calm   4.0 mph 82% 0.00 in 483.00 W/m2
11:37 61.2 °F 55.0 °F 30.25 in Calm     80% 0.00 in 376.00 W/m2
11:42 61.3 °F 54.4 °F 30.24 in Calm     78% 0.00 in 330.00 W/m2
11:47 61.4 °F 53.8 °F 30.24 in Calm     76% 0.00 in 330.00 W/m2
11:57 61.7 °F 55.5 °F 30.24 in Calm     80% 0.00 in 591.00 W/m2
12:08 61.9 °F 52.4 °F 30.23 in Calm   2.0 mph 71% 0.00 in 552.00 W/m2
12:13 62.0 °F 50.5 °F 30.23 in Calm   2.0 mph 66% 0.00 in 531.00 W/m2
12:18 62.4 °F 52.1 °F 30.23 in Calm   4.0 mph 69% 0.00 in 513.00 W/m2
12:23 62.7 °F 52.4 °F 30.23 in Calm     69% 0.00 in 550.00 W/m2
12:33 63.4 °F 53.5 °F 30.23 in Calm     70% 0.00 in 538.00 W/m2
12:38 63.6 °F 53.7 °F 30.23 in Calm     70% 0.00 in 538.00 W/m2
12:48 64.1 °F 55.7 °F 30.22 in Calm   2.0 mph 74% 0.00 in 536.00 W/m2
12:53 64.2 °F 55.8 °F 30.22 in Calm   1.0 mph 74% 0.00 in 434.00 W/m2
12:59 64.3 °F 52.3 °F 30.22 in ESE 1.0 mph 1.0 mph 65% 0.00 in 536.00 W/m2
13:04 64.5 °F 53.7 °F 30.22 in Calm   2.0 mph 68% 0.00 in 499.00 W/m2
13:09 64.6 °F 51.7 °F 30.21 in Calm     63% 0.00 in 464.00 W/m2
13:19 65.0 °F 51.2 °F 30.21 in Calm   4.0 mph 61% 0.00 in 464.00 W/m2
13:24 65.2 °F 54.0 °F 30.21 in ESE 1.0 mph 1.0 mph 67% 0.00 in 482.00 W/m2
13:34 65.6 °F 54.0 °F 30.20 in ESE 1.0 mph 1.0 mph 66% 0.00 in 454.00 W/m2
13:39 65.6 °F 53.1 °F 30.20 in Calm     64% 0.00 in 390.00 W/m2
13:49 65.6 °F 54.4 °F 30.20 in Calm     67% 0.00 in 439.00 W/m2
13:54 65.5 °F 53.4 °F 30.20 in Calm   1.0 mph 65% 0.00 in 462.00 W/m2
13:59 65.5 °F 53.4 °F 30.20 in Calm   2.0 mph 65% 0.00 in 429.00 W/m2
14:04 65.6 °F 52.2 °F 30.20 in Calm     62% 0.00 in 329.00 W/m2
14:09 65.7 °F 54.5 °F 30.20 in Calm     67% 0.00 in 246.00 W/m2
14:14 65.7 °F 54.0 °F 30.20 in Calm     66% 0.00 in 227.00 W/m2
14:19 65.7 °F 54.9 °F 30.20 in Calm     68% 0.00 in 239.00 W/m2
14:24 65.6 °F 55.2 °F 30.19 in Calm     69% 0.00 in 207.00 W/m2
14:29 65.6 °F 55.6 °F 30.19 in Calm     70% 0.00 in 186.00 W/m2
14:39 65.4 °F 55.8 °F 30.19 in Calm     71% 0.00 in 195.00 W/m2
14:45 65.3 °F 56.4 °F 30.19 in Calm     73% 0.00 in 253.00 W/m2
14:50 65.1 °F 56.6 °F 30.19 in Calm   1.0 mph 74% 0.00 in 195.00 W/m2
15:00 64.9 °F 57.5 °F 30.18 in Calm     77% 0.00 in 186.00 W/m2
15:05 64.8 °F 57.4 °F 30.18 in Calm     77% 0.00 in 132.00 W/m2
15:10 64.7 °F 57.3 °F 30.18 in Calm     77% 0.00 in 193.00 W/m2
15:15 64.6 °F 57.2 °F 30.18 in Calm     77% 0.00 in 209.00 W/m2
15:20 64.5 °F 57.8 °F 30.18 in Calm     79% 0.00 in 123.00 W/m2
15:25 64.4 °F 58.1 °F 30.18 in Calm     80% 0.00 in 221.00 W/m2
15:30 64.2 °F 58.3 °F 30.18 in Calm     81% 0.00 in 153.00 W/m2
15:40 64.0 °F 58.7 °F 30.18 in Calm     83% 0.00 in 102.00 W/m2
15:50 63.8 °F 58.5 °F 30.18 in Calm     83% 0.00 in 88.00 W/m2
15:55 63.6 °F 58.7 °F 30.18 in Calm     84% 0.00 in 63.00 W/m2
16:00 63.5 °F 58.2 °F 30.18 in Calm     83% 0.00 in 54.00 W/m2
16:05 63.3 °F 58.4 °F 30.17 in Calm     84% 0.00 in 51.00 W/m2
16:10 63.1 °F 58.2 °F 30.18 in Calm     84% 0.00 in 37.00 W/m2
16:15 62.9 °F 58.3 °F 30.17 in Calm     85% 0.00 in 26.00 W/m2
16:20 62.8 °F 58.2 °F 30.17 in Calm     85% 0.00 in 23.00 W/m2
16:25 62.6 °F 58.0 °F 30.17 in Calm     85% 0.00 in 19.00 W/m2
16:30 62.3 °F 57.7 °F 30.17 in Calm     85% 0.00 in 16.00 W/m2
16:35 62.1 °F 57.5 °F 30.17 in Calm     85% 0.00 in 12.00 W/m2
16:40 61.8 °F 57.2 °F 30.17 in Calm     85% 0.00 in 7.00 W/m2
16:45 61.5 °F 57.0 °F 30.17 in Calm     85% 0.00 in 0.00 W/m2
16:50 61.1 °F 56.6 °F 30.18 in Calm     85% 0.00 in 0.00 W/m2
16:56 60.8 °F 56.6 °F 30.18 in Calm     86% 0.00 in 0.00 W/m2
17:01 60.5 °F 56.3 °F 30.18 in Calm     86% 0.00 in 0.00 W/m2
17:06 60.2 °F 56.0 °F 30.18 in Calm     86% 0.00 in 0.00 W/m2
17:11 60.0 °F 56.1 °F 30.18 in Calm     87% 0.00 in 0.00 W/m2
17:16 59.9 °F 56.0 °F 30.18 in Calm     87% 0.00 in 0.00 W/m2
17:21 59.8 °F 55.9 °F 30.18 in Calm     87% 0.00 in 0.00 W/m2
17:26 59.5 °F 56.0 °F 30.18 in Calm     88% 0.00 in 0.00 W/m2
17:36 59.1 °F 55.5 °F 30.18 in Calm     88% 0.00 in 0.00 W/m2
17:41 59.0 °F 55.5 °F 30.19 in Calm     88% 0.00 in 0.00 W/m2
17:46 58.9 °F 55.4 °F 30.19 in Calm     88% 0.00 in 0.00 W/m2
17:51 58.8 °F 55.3 °F 30.19 in Calm     88% 0.00 in 0.00 W/m2
17:56 58.7 °F 54.8 °F 30.19 in Calm     87% 0.00 in 0.00 W/m2
18:06 58.5 °F 55.0 °F 30.19 in Calm     88% 0.00 in 0.00 W/m2
18:11 58.4 °F 54.9 °F 30.19 in East 7.0 mph 9.0 mph 88% 0.00 in 0.00 W/m2
18:16 58.2 °F 54.7 °F 30.19 in East 9.0 mph 11.0 mph 88% 0.00 in 0.00 W/m2
18:21 58.1 °F 54.6 °F 30.19 in Calm   7.0 mph 88% 0.00 in 0.00 W/m2
18:26 58.1 °F 54.6 °F 30.19 in Calm   11.0 mph 88% 0.00 in 0.00 W/m2
18:31 58.0 °F 54.2 °F 30.19 in East 7.0 mph 13.0 mph 87% 0.00 in 0.00 W/m2
18:36 58.1 °F 53.9 °F 30.19 in Calm   4.0 mph 86% 0.00 in 0.00 W/m2
18:52 58.2 °F 53.7 °F 30.20 in Calm   8.0 mph 85% 0.00 in 0.00 W/m2
18:57 58.2 °F 53.7 °F 30.20 in Calm   9.0 mph 85% 0.00 in 0.00 W/m2
19:13 58.3 °F 53.2 °F 30.20 in Calm   12.0 mph 83% 0.00 in 0.00 W/m2
19:14 58.3 °F 52.8 °F 30.20 in ESE 6.0 mph 12.0 mph 82% 0.00 in 0.00 W/m2
19:24 58.3 °F 52.5 °F 30.21 in East 6.0 mph 14.0 mph 81% 0.00 in 0.00 W/m2
19:25 58.3 °F 52.5 °F 30.21 in East 8.0 mph 13.0 mph 81% 0.00 in 0.00 W/m2
19:31 58.3 °F 52.2 °F 30.21 in ESE 2.0 mph 9.0 mph 80% 0.00 in 0.00 W/m2
19:34 58.4 °F 52.3 °F 30.21 in East 4.0 mph 12.0 mph 80% 0.00 in 0.00 W/m2
19:36 58.3 °F 52.2 °F 30.21 in Calm     80% 0.00 in 0.00 W/m2
19:41 58.3 °F 51.5 °F 30.21 in Calm     78% 0.00 in 0.00 W/m2
19:46 58.4 °F 51.6 °F 30.21 in Calm   11.0 mph 78% 0.00 in 0.00 W/m2
19:51 58.4 °F 51.6 °F 30.21 in East 8.0 mph 12.0 mph 78% 0.00 in 0.00 W/m2
20:01 58.3 °F 51.1 °F 30.21 in East 7.0 mph 11.0 mph 77% 0.00 in 0.00 W/m2
20:06 58.3 °F 50.4 °F 30.22 in Calm   5.0 mph 75% 0.00 in 0.00 W/m2
20:11 58.4 °F 50.5 °F 30.22 in East 8.0 mph 11.0 mph 75% 0.00 in 0.00 W/m2
20:16 58.4 °F 50.5 °F 30.22 in Calm   10.0 mph 75% 0.00 in 0.00 W/m2
20:21 58.4 °F 50.9 °F 30.22 in East 7.0 mph 8.0 mph 76% 0.00 in 0.00 W/m2
20:26 58.3 °F 50.1 °F 30.22 in Calm   9.0 mph 74% 0.00 in 0.00 W/m2
20:36 58.2 °F 49.6 °F 30.22 in Calm   8.0 mph 73% 0.00 in 0.00 W/m2
20:41 58.2 °F 50.3 °F 30.22 in East 4.0 mph 8.0 mph 75% 0.00 in 0.00 W/m2
20:46 58.1 °F 49.9 °F 30.22 in East 6.0 mph 14.0 mph 74% 0.00 in 0.00 W/m2
21:01 58.0 °F 49.4 °F 30.22 in Calm   9.0 mph 73% 0.00 in 0.00 W/m2
21:06 58.0 °F 49.4 °F 30.22 in East 12.0 mph 14.0 mph 73% 0.00 in 0.00 W/m2
21:12 58.0 °F 49.0 °F 30.22 in East 12.0 mph 13.0 mph 72% 0.00 in 0.00 W/m2
21:22 58.0 °F 48.3 °F 30.22 in Calm   15.0 mph 70% 0.00 in 0.00 W/m2
21:27 58.1 °F 48.8 °F 30.23 in Calm   12.0 mph 71% 0.00 in 0.00 W/m2
21:32 58.0 °F 48.3 °F 30.22 in Calm   11.0 mph 70% 0.00 in 0.00 W/m2
21:37 58.0 °F 48.7 °F 30.22 in ESE 14.0 mph 16.0 mph 71% 0.00 in 0.00 W/m2
21:42 58.0 °F 48.3 °F 30.23 in East 8.0 mph 13.0 mph 70% 0.00 in 0.00 W/m2
21:47 58.0 °F 48.3 °F 30.23 in Calm   11.0 mph 70% 0.00 in 0.00 W/m2
21:52 57.9 °F 48.2 °F 30.23 in ESE 12.0 mph 14.0 mph 70% 0.00 in 0.00 W/m2
21:57 57.8 °F 48.1 °F 30.23 in East 6.0 mph 16.0 mph 70% 0.00 in 0.00 W/m2
22:02 57.8 °F 48.1 °F 30.23 in East 5.0 mph 14.0 mph 70% 0.00 in 0.00 W/m2
22:12 57.8 °F 48.1 °F 30.22 in Calm   11.0 mph 70% 0.00 in 0.00 W/m2
22:17 57.8 °F 48.5 °F 30.23 in ESE 6.0 mph 16.0 mph 71% 0.00 in 0.00 W/m2
22:27 57.6 °F 47.5 °F 30.23 in Calm   12.0 mph 69% 0.00 in 0.00 W/m2
22:32 57.6 °F 48.3 °F 30.23 in ESE 2.0 mph 12.0 mph 71% 0.00 in 0.00 W/m2
22:37 57.5 °F 47.4 °F 30.23 in ESE 2.0 mph 9.0 mph 69% 0.00 in 0.00 W/m2
22:42 57.5 °F 47.8 °F 30.23 in ESE 5.0 mph 9.0 mph 70% 0.00 in 0.00 W/m2
22:47 57.5 °F 47.4 °F 30.23 in East 5.0 mph 15.0 mph 69% 0.00 in 0.00 W/m2
22:57 57.5 °F 47.4 °F 30.23 in SE 9.0 mph 9.0 mph 69% 0.00 in 0.00 W/m2
23:02 57.5 °F 47.4 °F 30.23 in East 5.0 mph 11.0 mph 69% 0.00 in 0.00 W/m2
23:07 57.5 °F 47.0 °F 30.23 in Calm   14.0 mph 68% 0.00 in 0.00 W/m2
23:12 57.4 °F 46.9 °F 30.23 in East 6.0 mph 8.0 mph 68% 0.00 in 0.00 W/m2
23:17 57.5 °F 47.0 °F 30.23 in East 11.0 mph 11.0 mph 68% 0.00 in 0.00 W/m2
23:37 57.5 °F 46.6 °F 30.23 in East 4.0 mph 7.0 mph 67% 0.00 in 0.00 W/m2
23:38 57.4 °F 46.9 °F 30.23 in East 7.0 mph 11.0 mph 68% 0.00 in 0.00 W/m2
23:48 57.4 °F 46.9 °F 30.22 in SE 1.0 mph 9.0 mph 68% 0.00 in 0.00 W/m2
23:58 57.3 °F 47.2 °F 30.22 in East 11.0 mph 11.0 mph 69% 0.00 in 0.00 W/m2
Foresthill Weather
 WU-history PHP script courtesy of   Juneau County Weather.
powered by Cumulus v1.9.3 (1059)
Ambient Weather VWS v14.00
Top Contact Website Map Copyright © 2007 - 2018 Foresthillweather.com Never base important decisions on this or any weather information obtained from the Internet